Time;durP1;ratioP1;P1;durP2;ratioP2;P2;SDS_P1;SDS_P2;PMS_P1;PMS_P2;Temp;Humidity;BMP_temperature;BMP_pressure;BME280_temperature;BME280_humidity;BME280_pressure;Samples;Min_cycle;Max_cycle;Signal;HPM_P1;HPM_P2
2022/07/23 00:00:30;;;;;;;7.13;5.83;;;16.00;70.60;;;;;;5003812;28;20817;-52
2022/07/23 00:02:56;;;;;;;6.93;6.13;;;16.00;58.80;;;;;;5008046;28;20495;-52
2022/07/23 00:05:23;;;;;;;7.57;5.67;;;16.00;63.40;;;;;;5008231;28;20533;-51
2022/07/23 00:07:50;;;;;;;6.30;5.17;;;15.90;65.30;;;;;;5009653;28;20517;-53
2022/07/23 00:10:16;;;;;;;7.27;6.57;;;16.00;58.50;;;;;;5005946;28;20519;-53
2022/07/23 00:12:43;;;;;;;6.13;5.63;;;16.00;64.20;;;;;;5004028;28;20492;-52
2022/07/23 00:15:10;;;;;;;6.10;5.50;;;15.90;64.00;;;;;;5004424;28;20843;-51
2022/07/23 00:17:38;;;;;;;5.77;5.27;;;15.80;62.70;;;;;;5013783;28;20489;-52
2022/07/23 00:20:06;;;;;;;5.73;5.33;;;15.80;66.30;;;;;;5011383;28;20534;-53
2022/07/23 00:22:33;;;;;;;5.87;5.37;;;15.70;69.30;;;;;;5012545;28;20495;-51
2022/07/23 00:24:59;;;;;;;6.37;5.77;;;15.70;63.20;;;;;;5011931;28;20494;-52
2022/07/23 00:27:26;;;;;;;8.47;6.00;;;15.70;49.60;;;;;;5008090;28;20465;-52
2022/07/23 00:29:53;;;;;;;7.23;4.90;;;15.70;44.40;;;;;;5009967;28;20514;-53
2022/07/23 00:32:19;;;;;;;9.50;5.70;;;15.60;51.70;;;;;;5002551;28;20522;-51
2022/07/23 00:34:47;;;;;;;6.43;5.73;;;15.60;49.20;;;;;;5012794;28;20891;-53
2022/07/23 00:37:14;;;;;;;6.00;5.40;;;15.60;47.10;;;;;;4998867;28;20513;-52
2022/07/23 00:39:40;;;;;;;8.70;6.03;;;15.60;53.50;;;;;;5005509;28;20553;-53
2022/07/23 00:42:07;;;;;;;6.47;5.97;;;15.50;55.80;;;;;;5009275;28;20484;-53
2022/07/23 00:44:33;;;;;;;6.10;5.50;;;15.50;55.40;;;;;;5012766;28;20515;-52
2022/07/23 00:47:00;;;;;;;6.27;5.63;;;15.50;54.60;;;;;;5012816;28;20491;-53
2022/07/23 00:49:29;;;;;;;6.37;5.80;;;15.40;43.70;;;;;;5012615;28;20519;-51
2022/07/23 00:51:57;;;;;;;9.50;5.60;;;15.50;37.70;;;;;;5000416;28;20491;-52
2022/07/23 00:54:26;;;;;;;7.00;5.53;;;15.50;42.20;;;;;;5011468;28;20459;-51
2022/07/23 00:56:54;;;;;;;6.57;5.87;;;15.40;46.10;;;;;;5011041;28;20495;-51
2022/07/23 00:59:21;;;;;;;5.60;5.20;;;15.40;49.20;;;;;;5004929;28;21114;-53
2022/07/23 01:01:48;;;;;;;6.77;6.10;;;15.40;48.70;;;;;;5012340;28;20862;-53
2022/07/23 01:04:15;;;;;;;6.53;5.70;;;15.30;47.40;;;;;;5001709;28;20516;-52
2022/07/23 01:06:44;;;;;;;7.30;5.50;;;15.30;46.60;;;;;;5003643;28;20470;-52
2022/07/23 01:09:13;;;;;;;7.73;6.17;;;15.20;48.10;;;;;;5010756;28;20871;-52
2022/07/23 01:11:39;;;;;;;6.53;5.90;;;15.30;42.60;;;;;;5003017;28;20467;-52
2022/07/23 01:14:14;;;;;;;6.40;5.90;;;15.30;37.20;;;;;;5005766;28;20487;-51
2022/07/23 01:16:41;;;;;;;6.73;5.80;;;15.20;36.20;;;;;;5004561;28;20495;-51
2022/07/23 01:19:08;;;;;;;5.37;4.97;;;15.00;38.50;;;;;;5011912;28;20511;-51
2022/07/23 01:21:37;;;;;;;6.60;5.87;;;15.00;31.20;;;;;;5010270;28;20471;-52
2022/07/23 01:24:06;;;;;;;6.50;5.90;;;15.00;35.90;;;;;;5003175;28;20508;-52
2022/07/23 01:26:33;;;;;;;6.43;5.77;;;15.10;32.50;;;;;;5005886;28;21012;-54
2022/07/23 01:28:59;;;;;;;9.90;6.80;;;15.00;31.00;;;;;;5011291;28;20534;-53
2022/07/23 01:31:26;;;;;;;7.57;5.57;;;15.00;26.70;;;;;;5001195;28;20471;-53
2022/07/23 01:33:53;;;;;;;5.97;5.37;;;15.00;24.80;;;;;;5008796;28;20460;-51
2022/07/23 01:36:20;;;;;;;6.60;6.10;;;15.00;33.20;;;;;;5010744;28;20499;-52
2022/07/23 01:38:46;;;;;;;6.57;5.90;;;14.90;33.00;;;;;;5002205;28;20893;-52
2022/07/23 01:41:14;;;;;;;4.90;4.60;;;14.90;33.30;;;;;;5005819;28;20981;-52
2022/07/23 01:43:41;;;;;;;8.70;5.27;;;15.00;25.70;;;;;;5011505;28;20509;-52
2022/07/23 01:46:07;;;;;;;6.17;5.20;;;14.90;34.00;;;;;;5004244;28;20459;-52
2022/07/23 01:48:34;;;;;;;9.03;5.67;;;14.90;29.00;;;;;;5002359;28;21009;-53
2022/07/23 01:51:01;;;;;;;6.63;6.13;;;14.90;35.40;;;;;;5006991;28;20518;-52
2022/07/23 01:53:27;;;;;;;7.00;6.40;;;14.90;36.20;;;;;;5009056;28;20468;-54
2022/07/23 01:55:54;;;;;;;5.97;5.47;;;14.80;30.30;;;;;;5005662;28;20464;-52
2022/07/23 01:58:22;;;;;;;5.90;5.40;;;14.90;71.60;;;;;;5008054;28;20499;-53
2022/07/23 02:00:48;;;;;;;5.80;5.40;;;14.80;32.60;;;;;;5011443;28;20518;-52
2022/07/23 02:03:15;;;;;;;7.20;5.40;;;14.80;31.40;;;;;;5008149;28;20459;-53
2022/07/23 02:05:41;;;;;;;7.73;5.97;;;14.90;32.90;;;;;;5011088;28;20479;-52
2022/07/23 02:08:08;;;;;;;5.43;5.03;;;14.80;28.20;;;;;;5003411;28;20491;-52
2022/07/23 02:10:35;;;;;;;8.27;5.47;;;14.80;24.10;;;;;;5009950;28;20880;-52
2022/07/23 02:13:01;;;;;;;6.43;5.10;;;14.90;26.80;;;;;;5002834;28;20868;-52
2022/07/23 02:15:29;;;;;;;7.10;6.23;;;14.90;25.20;;;;;;5001937;28;20463;-52
2022/07/23 02:17:56;;;;;;;5.87;4.80;;;14.90;29.30;;;;;;5010905;28;20463;-52
2022/07/23 02:20:23;;;;;;;11.27;5.97;;;15.00;30.00;;;;;;5009619;28;20515;-53
2022/07/23 02:22:50;;;;;;;6.23;5.63;;;15.00;32.50;;;;;;5002730;28;21015;-53
2022/07/23 02:25:16;;;;;;;7.03;5.23;;;15.00;35.30;;;;;;5007026;28;21066;-53
2022/07/23 02:27:43;;;;;;;5.70;4.63;;;15.10;40.40;;;;;;5010514;28;20459;-53
2022/07/23 02:30:10;;;;;;;7.83;5.20;;;15.00;44.20;;;;;;5001663;28;20510;-53
2022/07/23 02:32:39;;;;;;;6.43;5.17;;;15.10;42.40;;;;;;5002351;28;20478;-53
2022/07/23 02:35:07;;;;;;;6.90;4.60;;;15.10;50.30;;;;;;5009894;28;21019;-53
2022/07/23 02:37:33;;;;;;;8.30;4.63;;;15.10;54.80;;;;;;5010248;28;20513;-53
2022/07/23 02:40:00;;;;;;;4.90;4.50;;;15.10;50.00;;;;;;5011520;28;20503;-53
2022/07/23 02:42:27;;;;;;;6.00;4.80;;;15.10;56.80;;;;;;5008168;28;20521;-52
2022/07/23 02:44:53;;;;;;;5.67;4.27;;;15.20;55.90;;;;;;5006202;28;20511;-54
2022/07/23 02:47:20;;;;;;;7.63;4.07;;;15.20;59.40;;;;;;4999533;28;20930;-53
2022/07/23 02:49:48;;;;;;;6.17;4.23;;;15.20;60.10;;;;;;5000321;28;20864;-53
2022/07/23 02:52:14;;;;;;;9.53;4.50;;;15.20;61.20;;;;;;5003913;28;20479;-52
2022/07/23 02:54:41;;;;;;;5.87;4.53;;;15.20;62.50;;;;;;5011988;28;20820;-54
2022/07/23 02:57:07;;;;;;;5.17;4.20;;;15.20;63.90;;;;;;5008549;28;20468;-53
2022/07/23 02:59:34;;;;;;;8.20;4.53;;;15.20;64.40;;;;;;4996469;28;20507;-51
2022/07/23 03:02:00;;;;;;;5.53;4.33;;;15.30;68.80;;;;;;4994930;28;20468;-54
2022/07/23 03:04:27;;;;;;;5.50;3.43;;;15.20;65.00;;;;;;4992230;28;20542;-53
2022/07/23 03:06:55;;;;;;;6.70;3.83;;;15.30;75.00;;;;;;5000092;28;20957;-52
2022/07/23 03:09:21;;;;;;;6.60;4.67;;;15.20;78.00;;;;;;5007197;28;20984;-52
2022/07/23 03:11:48;;;;;;;5.00;4.20;;;15.30;77.80;;;;;;5009672;28;20487;-53
2022/07/23 03:14:16;;;;;;;8.80;4.20;;;15.20;79.80;;;;;;5003117;28;20514;-54
2022/07/23 03:16:42;;;;;;;5.17;4.20;;;15.20;80.80;;;;;;5004745;28;20448;-53
2022/07/23 03:19:09;;;;;;;5.30;4.30;;;15.20;80.00;;;;;;5010538;28;20499;-54
2022/07/23 03:21:39;;;;;;;8.03;4.27;;;15.10;74.10;;;;;;5001030;28;20452;-52
2022/07/23 03:24:08;;;;;;;6.03;4.03;;;15.10;80.80;;;;;;5006719;28;21164;-54
2022/07/23 03:26:34;;;;;;;6.90;4.37;;;15.20;83.80;;;;;;5001901;28;20577;-53
2022/07/23 03:29:03;;;;;;;4.77;3.33;;;15.20;83.90;;;;;;5009938;28;20507;-52
2022/07/23 03:31:30;;;;;;;9.03;3.63;;;15.20;92.50;;;;;;5002749;28;20458;-52
2022/07/23 03:33:56;;;;;;;4.80;3.27;;;15.20;97.30;;;;;;5009610;28;20800;-52
2022/07/23 03:36:23;;;;;;;5.33;3.00;;;15.20;99.90;;;;;;5006776;28;21002;-52
2022/07/23 03:38:50;;;;;;;3.67;3.37;;;15.30;99.90;;;;;;4992045;28;20484;-53
2022/07/23 03:41:18;;;;;;;4.07;3.50;;;15.30;99.90;;;;;;5009557;28;20980;-52
2022/07/23 03:43:45;;;;;;;4.47;3.27;;;15.30;99.90;;;;;;5003346;28;20451;-51
2022/07/23 03:46:11;;;;;;;3.30;3.00;;;15.30;99.90;;;;;;5009839;28;20902;-52
2022/07/23 03:48:38;;;;;;;7.57;3.17;;;15.40;99.90;;;;;;5005511;28;20464;-52
2022/07/23 03:51:05;;;;;;;5.97;2.63;;;15.40;99.90;;;;;;5000612;28;20535;-53
2022/07/23 03:53:32;;;;;;;4.40;2.53;;;15.50;99.90;;;;;;5011359;28;20474;-53
2022/07/23 03:55:58;;;;;;;7.10;2.87;;;15.50;99.90;;;;;;5005453;28;20519;-53
2022/07/23 03:58:26;;;;;;;3.90;2.43;;;15.50;99.90;;;;;;5013019;28;20470;-53
2022/07/23 04:00:53;;;;;;;4.33;2.40;;;15.50;99.90;;;;;;5006089;28;20467;-52
2022/07/23 04:03:19;;;;;;;4.20;3.03;;;15.50;99.90;;;;;;5009379;28;20509;-52
2022/07/23 04:05:46;;;;;;;5.37;2.40;;;15.50;99.90;;;;;;5012450;28;20483;-53
2022/07/23 04:08:12;;;;;;;4.17;2.63;;;15.60;99.90;;;;;;5005487;28;20547;-53
2022/07/23 04:10:39;;;;;;;4.53;2.30;;;15.60;99.90;;;;;;4998341;28;20488;-53
2022/07/23 04:13:05;;;;;;;2.60;2.40;;;15.60;99.90;;;;;;5002015;28;20460;-53
2022/07/23 04:15:33;;;;;;;4.97;2.60;;;15.60;99.90;;;;;;5002140;28;20543;-53
2022/07/23 04:18:00;;;;;;;4.80;2.60;;;15.60;99.90;;;;;;5004222;28;20711;-53
2022/07/23 04:20:26;;;;;;;4.60;2.63;;;15.60;99.90;;;;;;5005537;28;20577;-53
2022/07/23 04:22:53;;;;;;;6.37;2.57;;;15.60;99.90;;;;;;5009885;28;20463;-53
2022/07/23 04:25:20;;;;;;;8.70;2.60;;;15.70;99.90;;;;;;5005983;28;20878;-53
2022/07/23 04:27:46;;;;;;;2.07;1.90;;;15.70;99.90;;;;;;5007386;28;20464;-53
2022/07/23 04:30:13;;;;;;;6.93;2.40;;;15.70;99.90;;;;;;5013758;28;20541;-53
2022/07/23 04:32:41;;;;;;;6.60;2.90;;;15.60;99.90;;;;;;5010387;28;20518;-53
2022/07/23 04:35:08;;;;;;;4.50;2.60;;;15.50;99.90;;;;;;5013262;28;20519;-53
2022/07/23 04:37:35;;;;;;;5.30;3.17;;;15.30;72.70;;;;;;5004785;28;20461;-53
2022/07/23 04:40:01;;;;;;;5.13;3.27;;;15.20;34.50;;;;;;4996207;28;20526;-53
2022/07/23 04:42:28;;;;;;;6.50;2.33;;;15.10;29.70;;;;;;5003747;28;20464;-53
2022/07/23 04:44:54;;;;;;;6.47;3.33;;;14.90;24.00;;;;;;5010081;28;20515;-52
2022/07/23 04:47:21;;;;;;;6.10;2.80;;;14.90;99.90;;;;;;5008829;28;20456;-53
2022/07/23 04:49:49;;;;;;;9.27;2.83;;;14.90;99.90;;;;;;5009655;28;20492;-52
2022/07/23 04:52:15;;;;;;;7.05;2.10;;;14.80;99.90;;;;;;5009938;28;20454;-52
2022/07/23 04:54:42;;;;;;;7.40;2.40;;;14.80;99.90;;;;;;5011514;28;20201;-52
2022/07/23 04:57:08;;;;;;;4.23;2.10;;;14.80;99.90;;;;;;5006195;28;20804;-52
2022/07/23 04:59:35;;;;;;;6.20;3.40;;;14.80;99.90;;;;;;5003014;28;20862;-52
2022/07/23 05:02:02;;;;;;;4.20;2.43;;;14.70;99.90;;;;;;5010411;28;20836;-53
2022/07/23 05:04:28;;;;;;;14.30;3.00;;;14.80;99.90;;;;;;5004813;28;20464;-52
2022/07/23 05:06:56;;;;;;;2.83;2.60;;;14.80;99.90;;;;;;5008751;28;20519;-53
2022/07/23 05:09:23;;;;;;;6.73;3.30;;;14.80;99.90;;;;;;5009560;28;20514;-52
2022/07/23 05:11:49;;;;;;;5.80;2.70;;;14.80;99.90;;;;;;5004310;28;20468;-51
2022/07/23 05:14:16;;;;;;;4.60;2.60;;;14.80;99.90;;;;;;5007808;28;20537;-53
2022/07/23 05:16:43;;;;;;;6.33;2.70;;;14.80;99.90;;;;;;5003037;28;20460;-53
2022/07/23 05:19:09;;;;;;;4.73;2.60;;;14.70;99.90;;;;;;5004982;28;20483;-53
2022/07/23 05:21:36;;;;;;;6.23;3.43;;;14.80;99.90;;;;;;5008194;28;20815;-52
2022/07/23 05:24:04;;;;;;;4.57;3.00;;;14.80;99.90;;;;;;5010795;28;20888;-51
2022/07/23 05:26:31;;;;;;;3.63;3.27;;;14.80;99.90;;;;;;5004399;28;20515;-51
2022/07/23 05:28:57;;;;;;;4.37;3.27;;;14.80;99.90;;;;;;5010845;28;20480;-53
2022/07/23 05:31:24;;;;;;;3.67;3.20;;;14.70;99.90;;;;;;5007853;28;20997;-53
2022/07/23 05:33:50;;;;;;;6.90;3.50;;;14.70;99.90;;;;;;5005207;28;20990;-52
2022/07/23 05:36:17;;;;;;;4.77;3.17;;;14.80;99.90;;;;;;5007350;28;21047;-53
2022/07/23 05:38:43;;;;;;;9.93;3.20;;;14.70;99.90;;;;;;5005634;28;20918;-52
2022/07/23 05:41:11;;;;;;;4.83;3.00;;;14.80;99.90;;;;;;4999184;28;20480;-52
2022/07/23 05:43:38;;;;;;;3.63;3.33;;;14.80;99.90;;;;;;5004022;28;20448;-52
2022/07/23 05:46:05;;;;;;;5.90;2.90;;;14.80;99.90;;;;;;5010320;28;21025;-52
2022/07/23 05:48:31;;;;;;;3.70;3.10;;;14.90;99.90;;;;;;5006702;28;20460;-52
2022/07/23 05:50:58;;;;;;;8.60;3.20;;;14.80;99.90;;;;;;5004013;28;20456;-52
2022/07/23 05:53:25;;;;;;;5.53;3.10;;;14.90;99.90;;;;;;5011021;28;20463;-52
2022/07/23 05:55:51;;;;;;;8.03;3.50;;;14.90;99.90;;;;;;5010195;28;20464;-52
2022/07/23 05:58:19;;;;;;;4.60;3.20;;;15.00;99.90;;;;;;5003208;28;20518;-52
2022/07/23 06:00:46;;;;;;;5.37;3.30;;;15.00;99.90;;;;;;5005403;28;20468;-52
2022/07/23 06:03:12;;;;;;;4.93;3.90;;;14.90;99.90;;;;;;5008067;28;20542;-52
2022/07/23 06:05:39;;;;;;;8.03;3.43;;;14.80;99.90;;;;;;5005158;28;20509;-52
2022/07/23 06:08:06;;;;;;;7.33;3.43;;;14.90;99.90;;;;;;5010643;28;20547;-52
2022/07/23 06:10:32;;;;;;;6.20;3.30;;;14.90;99.90;;;;;;5007765;28;20491;-52
2022/07/23 06:12:59;;;;;;;6.80;3.07;;;14.90;99.90;;;;;;5009317;28;20467;-53
2022/07/23 06:15:27;;;;;;;6.87;3.27;;;14.90;99.90;;;;;;5003457;28;20456;-53
2022/07/23 06:17:53;;;;;;;7.20;3.77;;;14.90;99.90;;;;;;5009935;28;20510;-52
2022/07/23 06:20:20;;;;;;;6.80;3.40;;;14.90;99.90;;;;;;5007774;28;20471;-51
2022/07/23 06:22:47;;;;;;;5.97;3.30;;;14.90;99.90;;;;;;5011364;28;20869;-53
2022/07/23 06:25:13;;;;;;;9.17;4.17;;;14.90;99.90;;;;;;5002644;28;20542;-53
2022/07/23 06:27:40;;;;;;;5.17;3.83;;;15.00;99.90;;;;;;4999507;28;20494;-53
2022/07/23 06:30:10;;;;;;;5.43;3.13;;;15.00;99.90;;;;;;5003541;28;20892;-54
2022/07/23 06:32:37;;;;;;;6.97;4.00;;;15.00;99.90;;;;;;5010964;28;20471;-51
2022/07/23 06:35:05;;;;;;;5.40;3.30;;;14.90;99.90;;;;;;5008274;28;20514;-51
2022/07/23 06:37:31;;;;;;;4.00;3.47;;;14.80;99.90;;;;;;5007644;28;20499;-51
2022/07/23 06:39:58;;;;;;;5.70;3.50;;;14.90;99.90;;;;;;5007477;28;20487;-51
2022/07/23 06:42:24;;;;;;;3.90;2.87;;;14.90;99.90;;;;;;5007794;28;20492;-52
2022/07/23 06:44:51;;;;;;;5.53;3.40;;;15.00;99.90;;;;;;5005072;28;20468;-53
2022/07/23 06:47:18;;;;;;;5.53;3.27;;;15.10;99.90;;;;;;5007158;28;20512;-51
2022/07/23 06:49:45;;;;;;;4.53;3.50;;;15.10;99.90;;;;;;5007633;28;20510;-52
2022/07/23 06:52:12;;;;;;;4.40;3.93;;;15.20;99.90;;;;;;5007859;28;20449;-53
2022/07/23 06:54:39;;;;;;;5.43;3.57;;;15.20;99.90;;;;;;5007034;28;20494;-52
2022/07/23 06:57:05;;;;;;;8.67;3.40;;;15.20;99.90;;;;;;5008880;28;20456;-53
2022/07/23 06:59:32;;;;;;;5.70;4.30;;;15.20;99.90;;;;;;5005280;28;20993;-53
2022/07/23 07:01:59;;;;;;;5.60;3.93;;;15.20;99.90;;;;;;5000974;28;21015;-51
2022/07/23 07:04:26;;;;;;;8.17;3.50;;;15.20;99.90;;;;;;5003711;28;20509;-53
2022/07/23 07:06:53;;;;;;;6.77;3.17;;;15.30;99.90;;;;;;5007104;28;20599;-52
2022/07/23 07:09:20;;;;;;;2.90;2.70;;;15.30;99.90;;;;;;5009918;28;20533;-52
2022/07/23 07:11:47;;;;;;;6.90;4.03;;;15.30;99.90;;;;;;5008884;28;20871;-51
2022/07/23 07:14:13;;;;;;;5.17;3.70;;;15.30;99.90;;;;;;5007989;28;20875;-52
2022/07/23 07:16:40;;;;;;;5.57;3.57;;;15.30;99.90;;;;;;5003330;28;20464;-52
2022/07/23 07:19:06;;;;;;;5.47;3.47;;;15.30;99.90;;;;;;5008440;28;20573;-51
2022/07/23 07:21:33;;;;;;;4.37;3.10;;;15.40;99.90;;;;;;5009170;28;20464;-52
2022/07/23 07:24:01;;;;;;;3.70;3.40;;;15.30;99.90;;;;;;5007604;28;20459;-52
2022/07/23 07:26:28;;;;;;;8.23;3.33;;;15.30;99.90;;;;;;5011068;28;20510;-52
2022/07/23 07:28:55;;;;;;;4.50;3.60;;;15.30;99.90;;;;;;5003916;28;20829;-52
2022/07/23 07:31:21;;;;;;;5.13;2.53;;;15.30;99.90;;;;;;5008995;28;20459;-52
2022/07/23 07:33:48;;;;;;;5.00;2.93;;;15.30;99.90;;;;;;5006909;28;20644;-52
2022/07/23 07:36:14;;;;;;;5.33;2.87;;;15.40;99.90;;;;;;5010544;28;20460;-53
2022/07/23 07:38:41;;;;;;;4.77;3.63;;;15.30;99.90;;;;;;5008293;28;21008;-52
2022/07/23 07:41:10;;;;;;;4.30;3.27;;;15.30;99.90;;;;;;5013608;28;20468;-52
2022/07/23 07:43:36;;;;;;;2.97;2.77;;;15.40;99.90;;;;;;5011526;28;20444;-52
2022/07/23 07:46:03;;;;;;;3.90;2.50;;;15.40;99.90;;;;;;5009505;28;21016;-52
2022/07/23 07:48:30;;;;;;;4.13;2.40;;;15.40;99.90;;;;;;5007066;28;20534;-52
2022/07/23 07:50:56;;;;;;;4.80;2.43;;;15.40;99.90;;;;;;5000513;28;20468;-51
2022/07/23 07:53:23;;;;;;;3.60;2.50;;;15.40;99.90;;;;;;5005341;28;20451;-53
2022/07/23 07:55:49;;;;;;;4.80;2.43;;;15.50;99.90;;;;;;5013823;28;20448;-51
2022/07/23 07:58:17;;;;;;;3.47;1.97;;;15.50;99.90;;;;;;5006976;28;20804;-53
2022/07/23 08:00:44;;;;;;;6.07;2.23;;;15.50;99.90;;;;;;5014293;28;20846;-51
2022/07/23 08:03:10;;;;;;;3.83;2.70;;;15.60;99.90;;;;;;5005252;28;20490;-51
2022/07/23 08:05:37;;;;;;;3.97;2.20;;;15.70;99.90;;;;;;5007135;28;20460;-53
2022/07/23 08:08:04;;;;;;;4.30;2.40;;;15.80;99.90;;;;;;5011209;28;20491;-51
2022/07/23 08:10:31;;;;;;;4.07;2.67;;;15.90;76.00;;;;;;5012657;28;20484;-53
2022/07/23 08:13:00;;;;;;;2.50;1.70;;;15.90;84.90;;;;;;5013583;28;20460;-53
2022/07/23 08:15:30;;;;;;;3.37;2.40;;;16.00;99.90;;;;;;5009281;28;20464;-53
2022/07/23 08:17:57;;;;;;;5.07;2.27;;;16.10;99.90;;;;;;5013211;28;20459;-54
2022/07/23 08:20:25;;;;;;;5.03;3.17;;;16.30;99.90;;;;;;5006588;28;20910;-53
2022/07/23 08:22:53;;;;;;;12.03;2.90;;;16.30;25.90;;;;;;5010489;28;20527;-51
2022/07/23 08:25:22;;;;;;;2.63;2.00;;;16.50;27.50;;;;;;5010284;28;20448;-52
2022/07/23 08:27:50;;;;;;;4.20;2.40;;;16.40;96.00;;;;;;5010281;28;20542;-51
2022/07/23 08:30:18;;;;;;;3.83;2.63;;;16.50;97.80;;;;;;5009807;28;20484;-51
2022/07/23 08:32:57;;;;;;;5.07;2.37;;;16.60;93.30;;;;;;5006918;28;20499;-52
2022/07/23 08:35:27;;;;;;;3.53;2.63;;;16.70;91.10;;;;;;5007583;28;20440;-53
2022/07/23 08:37:53;;;;;;;6.50;2.50;;;16.90;95.40;;;;;;5012910;28;20459;-52
2022/07/23 08:40:20;;;;;;;4.50;2.43;;;17.10;99.90;;;;;;5005442;28;20516;-52
2022/07/23 08:42:49;;;;;;;2.87;2.53;;;17.10;99.90;;;;;;5007970;28;20509;-52
2022/07/23 08:45:18;;;;;;;4.33;2.27;;;17.30;99.90;;;;;;5011120;28;20465;-53
2022/07/23 08:47:45;;;;;;;3.57;1.97;;;17.40;99.90;;;;;;5010686;28;20486;-53
2022/07/23 08:50:14;;;;;;;2.60;1.70;;;17.50;99.90;;;;;;5004156;28;20988;-53
2022/07/23 08:52:41;;;;;;;5.00;2.10;;;17.50;99.90;;;;;;5012540;28;20468;-52
2022/07/23 08:55:09;;;;;;;4.90;2.27;;;17.50;99.90;;;;;;5011347;28;20464;-51
2022/07/23 08:57:36;;;;;;;4.83;2.80;;;17.60;99.90;;;;;;5005781;28;20447;-51
2022/07/23 09:00:06;;;;;;;4.57;2.20;;;17.70;99.90;;;;;;5011403;28;20484;-51
2022/07/23 09:02:38;;;;;;;3.73;2.30;;;17.70;99.90;;;;;;5004151;28;20518;-53
2022/07/23 09:05:06;;;;;;;5.53;2.33;;;17.70;99.90;;;;;;5010708;28;20561;-53
2022/07/23 09:07:34;;;;;;;4.33;2.53;;;17.90;99.90;;;;;;5008014;28;20479;-52
2022/07/23 09:10:11;;;;;;;6.30;2.60;;;18.00;99.90;;;;;;5006476;28;20568;-52
2022/07/23 09:12:38;;;;;;;4.30;2.33;;;18.50;99.90;;;;;;4998575;28;20494;-51
2022/07/23 09:15:07;;;;;;;3.97;2.30;;;19.00;99.90;;;;;;5006089;28;20463;-52
2022/07/23 09:17:43;;;;;;;2.60;2.40;;;19.20;99.90;;;;;;5003900;28;20520;-51
2022/07/23 09:20:12;;;;;;;5.87;2.40;;;19.10;99.90;;;;;;5008663;28;20552;-51
2022/07/23 09:22:41;;;;;;;9.87;2.70;;;18.90;26.40;;;;;;4993156;28;20456;-53
2022/07/23 09:25:10;;;;;;;7.53;2.50;;;18.80;99.90;;;;;;5008863;28;20467;-53
2022/07/23 09:27:49;;;;;;;6.50;2.57;;;18.80;99.90;;;;;;5006098;28;20539;-53
2022/07/23 09:30:16;;;;;;;3.00;2.80;;;18.90;84.70;;;;;;5001832;28;20510;-51
2022/07/23 09:32:43;;;;;;;4.73;2.80;;;19.00;99.90;;;;;;5009542;28;20495;-51
2022/07/23 09:35:09;;;;;;;5.27;2.50;;;19.00;99.90;;;;;;5001148;28;20543;-51
2022/07/23 09:37:36;;;;;;;4.80;2.20;;;19.00;99.90;;;;;;5001870;28;20444;-53
2022/07/23 09:40:11;;;;;;;5.50;3.13;;;19.10;92.20;;;;;;4999864;28;20491;-53
2022/07/23 09:42:38;;;;;;;9.10;3.63;;;19.30;27.10;;;;;;5011390;28;20459;-53
2022/07/23 09:45:12;;;;;;;5.13;2.50;;;19.40;44.40;;;;;;5003350;28;20494;-52
2022/07/23 09:47:38;;;;;;;5.67;3.03;;;19.40;40.30;;;;;;5005944;28;20492;-53
2022/07/23 09:50:08;;;;;;;9.40;3.40;;;19.40;50.20;;;;;;5010821;28;20530;-51
2022/07/23 09:52:36;;;;;;;5.30;3.43;;;19.50;42.30;;;;;;5009445;28;20460;-51
2022/07/23 09:55:05;;;;;;;4.20;2.80;;;19.30;53.00;;;;;;5009534;28;20460;-51
2022/07/23 09:57:34;;;;;;;3.20;2.80;;;19.20;29.80;;;;;;5007073;28;21043;-51
2022/07/23 10:00:04;;;;;;;4.23;3.20;;;19.20;33.30;;;;;;5011633;28;20522;-51
2022/07/23 10:02:33;;;;;;;3.83;3.17;;;19.30;37.10;;;;;;5011278;28;20466;-52
2022/07/23 10:05:02;;;;;;;9.13;3.40;;;19.30;40.50;;;;;;5007905;28;20495;-52
2022/07/23 10:07:33;;;;;;;5.90;4.27;;;19.40;40.40;;;;;;5005386;28;20566;-53
2022/07/23 10:10:00;;;;;;;7.83;3.33;;;19.60;49.40;;;;;;4998413;28;21003;-52
2022/07/23 10:12:41;;;;;;;8.00;3.13;;;19.80;46.70;;;;;;5007847;28;20460;-51
2022/07/23 10:15:09;;;;;;;3.77;3.00;;;20.10;61.50;;;;;;5003028;28;20481;-52
2022/07/23 10:17:36;;;;;;;4.73;2.93;;;20.30;96.20;;;;;;5004278;28;20447;-52
2022/07/23 10:20:03;;;;;;;6.40;2.83;;;20.50;99.90;;;;;;5011385;28;21047;-52
2022/07/23 10:22:34;;;;;;;5.43;3.20;;;20.70;99.90;;;;;;5010132;28;20531;-53
2022/07/23 10:25:10;;;;;;;6.10;3.17;;;20.80;99.90;;;;;;5008117;28;20538;-51
2022/07/23 10:27:46;;;;;;;4.20;2.83;;;20.90;92.20;;;;;;5006208;28;20858;-52
2022/07/23 10:30:20;;;;;;;4.83;2.90;;;20.90;99.90;;;;;;5001197;28;20551;-52
2022/07/23 10:32:57;;;;;;;9.43;3.00;;;21.00;99.90;;;;;;5003570;28;20447;-53
2022/07/23 10:35:30;;;;;;;3.47;3.17;;;21.10;99.90;;;;;;4993446;28;20884;-51
2022/07/23 10:38:08;;;;;;;4.17;3.23;;;21.20;99.90;;;;;;5008697;28;20452;-51
2022/07/23 10:40:34;;;;;;;3.53;2.80;;;21.30;99.90;;;;;;5008477;28;20580;-51
2022/07/23 10:43:01;;;;;;;3.80;3.00;;;21.40;99.90;;;;;;5002587;28;20486;-52
2022/07/23 10:45:32;;;;;;;6.67;3.00;;;21.20;99.90;;;;;;5004003;28;20454;-52
2022/07/23 10:48:14;;;;;;;4.47;2.83;;;21.20;99.90;;;;;;5011437;28;20487;-51
2022/07/23 10:50:42;;;;;;;3.93;3.10;;;21.20;99.90;;;;;;5001094;28;20566;-52
2022/07/23 10:53:15;;;;;;;8.43;3.00;;;21.10;99.90;;;;;;5009025;28;20541;-53
2022/07/23 10:55:52;;;;;;;6.23;3.30;;;21.10;99.90;;;;;;5010060;28;20534;-52
2022/07/23 10:58:47;;;;;;;6.23;3.10;;;21.00;99.90;;;;;;5003941;28;20459;-53
2022/07/23 11:01:36;;;;;;;6.83;2.77;;;21.00;99.90;;;;;;5008104;28;20460;-53
2022/07/23 11:04:04;;;;;;;5.70;2.73;;;21.10;99.90;;;;;;5005393;28;20937;-53
2022/07/23 11:07:07;;;;;;;5.60;3.13;;;21.30;99.90;;;;;;5009264;28;20496;-52
2022/07/23 11:09:40;;;;;;;2.83;2.57;;;21.40;99.90;;;;;;4947294;29;21042;-51
2022/07/23 11:12:35;;;;;;;6.63;3.10;;;21.50;99.90;;;;;;4951200;28;21008;-51
2022/07/23 11:15:04;;;;;;;7.27;3.17;;;21.40;99.90;;;;;;4993195;28;20518;-52
2022/07/23 11:17:34;;;;;;;3.63;2.27;;;21.30;99.90;;;;;;5010858;28;20456;-53
2022/07/23 11:20:16;;;;;;;5.50;2.73;;;21.30;99.90;;;;;;5002832;28;20476;-53
2022/07/23 11:22:49;;;;;;;9.60;3.13;;;21.20;99.90;;;;;;5005339;28;21047;-52
2022/07/23 11:25:34;;;;;;;14.63;2.63;;;21.30;99.90;;;;;;5003902;28;20460;-52
2022/07/23 11:28:12;;;;;;;5.27;2.33;;;21.20;99.90;;;;;;5006613;28;20581;-52
2022/07/23 11:30:41;;;;;;;10.90;2.40;;;21.20;99.90;;;;;;5007241;28;20487;-52
2022/07/23 11:33:21;;;;;;;4.07;2.47;;;21.60;99.90;;;;;;5007935;28;20456;-52
2022/07/23 11:35:50;;;;;;;3.50;2.27;;;21.80;99.90;;;;;;5006235;28;20469;-52
2022/07/23 11:38:18;;;;;;;5.57;2.60;;;21.80;99.90;;;;;;5009827;28;20858;-52
2022/07/23 11:40:47;;;;;;;5.37;3.20;;;21.80;99.90;;;;;;5010211;28;20929;-51
2022/07/23 11:43:14;;;;;;;9.27;3.00;;;21.80;99.90;;;;;;5009556;28;20506;-52
2022/07/23 11:45:43;;;;;;;6.50;3.33;;;21.70;99.90;;;;;;5011545;28;20459;-52
2022/07/23 11:48:16;;;;;;;3.77;3.13;;;21.60;99.90;;;;;;5012436;28;20590;-52
2022/07/23 11:50:44;;;;;;;6.10;2.70;;;21.50;99.90;;;;;;5007182;28;20561;-51
2022/07/23 11:53:11;;;;;;;2.60;2.40;;;21.40;99.90;;;;;;5008345;28;20981;-52
2022/07/23 11:55:38;;;;;;;6.43;2.83;;;21.50;99.90;;;;;;5004082;28;20802;-53
2022/07/23 11:58:06;;;;;;;3.77;2.20;;;21.40;99.90;;;;;;5009911;28;20483;-52
2022/07/23 12:00:34;;;;;;;4.30;2.60;;;21.50;99.90;;;;;;5007172;28;20491;-52
2022/07/23 12:03:03;;;;;;;3.83;2.13;;;21.50;99.90;;;;;;5006053;28;20968;-52
2022/07/23 12:05:32;;;;;;;2.70;2.50;;;21.50;99.90;;;;;;5007190;28;21036;-52
2022/07/23 12:08:01;;;;;;;6.17;2.57;;;21.50;99.90;;;;;;5008733;28;20510;-51
2022/07/23 12:10:30;;;;;;;7.70;2.33;;;21.40;99.90;;;;;;5007160;28;20856;-53
2022/07/23 12:12:59;;;;;;;8.83;2.50;;;21.40;99.90;;;;;;5008202;28;20467;-52
2022/07/23 12:15:29;;;;;;;6.23;2.40;;;21.50;99.90;;;;;;5006794;28;20522;-52
2022/07/23 12:17:55;;;;;;;2.60;2.00;;;21.50;99.90;;;;;;5000785;28;20968;-51
2022/07/23 12:20:24;;;;;;;4.37;2.00;;;21.60;99.90;;;;;;5007395;28;20555;-52
2022/07/23 12:22:53;;;;;;;5.20;2.37;;;21.50;99.90;;;;;;5007867;28;20522;-52
2022/07/23 12:25:23;;;;;;;2.87;2.10;;;21.40;99.90;;;;;;5001215;28;20460;-51
2022/07/23 12:28:01;;;;;;;2.30;2.10;;;21.40;99.90;;;;;;5010593;28;20487;-51
2022/07/23 12:30:29;;;;;;;2.90;2.10;;;21.40;99.90;;;;;;5009629;28;20497;-52
2022/07/23 12:32:58;;;;;;;3.40;2.70;;;21.50;99.90;;;;;;5005480;28;21004;-52
2022/07/23 12:35:32;;;;;;;3.70;2.80;;;21.80;99.90;;;;;;5010540;28;20875;-52
2022/07/23 12:38:02;;;;;;;2.57;2.37;;;22.20;99.90;;;;;;5008421;28;20478;-51
2022/07/23 12:40:32;;;;;;;7.97;3.00;;;22.20;99.90;;;;;;5006103;28;20528;-52
2022/07/23 12:43:01;;;;;;;4.33;2.70;;;22.10;99.90;;;;;;5010491;28;20562;-52
2022/07/23 12:45:29;;;;;;;10.60;2.27;;;22.10;99.90;;;;;;5009671;28;20474;-52
2022/07/23 12:48:03;;;;;;;4.63;2.10;;;22.10;99.90;;;;;;5007756;28;20881;-52
2022/07/23 12:50:42;;;;;;;3.20;2.13;;;22.30;99.90;;;;;;5011881;28;20478;-53